Aviation Digital Data Service (ADDS)

Output produced by METARs form (2316 UTC 18 October 2019)
found at http://www.aviationweather.gov/metar/data/
 
METAR text: EDDH 182250Z 20012KT CAVOK 11/07 Q1006 NOSIG
Conditions at: EDDH (HAMBURG/FUHLSBUT, DE) observed 2250 UTC 18 October 2019
Temperature: 11.0°C (52°F)
Dewpoint: 7.0°C (45°F) [RH = 76%]
Pressure (altimeter): 29.70 inches Hg (1006.0 mb)
Winds: from the SSW (200 degrees) at 14 MPH (12 knots; 6.2 m/s)
Visibility: 6 or more miles (10+ km)
Ceiling: ceiling and visibility are OK
Clouds: unknown
Weather: no significant weather observed at this time

METAR text: EDDH 182220Z 21015KT CAVOK 11/07 Q1006 NOSIG
Conditions at: EDDH (HAMBURG/FUHLSBUT, DE) observed 2220 UTC 18 October 2019
Temperature: 11.0°C (52°F)
Dewpoint: 7.0°C (45°F) [RH = 76%]
Pressure (altimeter): 29.70 inches Hg (1006.0 mb)
Winds: from the SSW (210 degrees) at 17 MPH (15 knots; 7.7 m/s)
Visibility: 6 or more miles (10+ km)
Ceiling: ceiling and visibility are OK
Clouds: unknown
Weather: no significant weather observed at this time

METAR text: EDDH 182150Z 20015KT CAVOK 11/07 Q1006 NOSIG
Conditions at: EDDH (HAMBURG/FUHLSBUT, DE) observed 2150 UTC 18 October 2019
Temperature: 11.0°C (52°F)
Dewpoint: 7.0°C (45°F) [RH = 76%]
Pressure (altimeter): 29.70 inches Hg (1006.0 mb)
Winds: from the SSW (200 degrees) at 17 MPH (15 knots; 7.7 m/s)
Visibility: 6 or more miles (10+ km)
Ceiling: ceiling and visibility are OK
Clouds: unknown
Weather: no significant weather observed at this time

METAR text: EDDH 182120Z 21013KT CAVOK 11/07 Q1006 NOSIG
Conditions at: EDDH (HAMBURG/FUHLSBUT, DE) observed 2120 UTC 18 October 2019
Temperature: 11.0°C (52°F)
Dewpoint: 7.0°C (45°F) [RH = 76%]
Pressure (altimeter): 29.70 inches Hg (1006.0 mb)
Winds: from the SSW (210 degrees) at 15 MPH (13 knots; 6.7 m/s)
Visibility: 6 or more miles (10+ km)
Ceiling: ceiling and visibility are OK
Clouds: unknown
Weather: no significant weather observed at this time

METAR text: EDDH 182050Z 21014KT CAVOK 11/07 Q1006 NOSIG
Conditions at: EDDH (HAMBURG/FUHLSBUT, DE) observed 2050 UTC 18 October 2019
Temperature: 11.0°C (52°F)
Dewpoint: 7.0°C (45°F) [RH = 76%]
Pressure (altimeter): 29.70 inches Hg (1006.0 mb)
Winds: from the SSW (210 degrees) at 16 MPH (14 knots; 7.2 m/s)
Visibility: 6 or more miles (10+ km)
Ceiling: ceiling and visibility are OK
Clouds: unknown
Weather: no significant weather observed at this time

METAR text: EDDH 182020Z 21015KT CAVOK 11/07 Q1006 NOSIG
Conditions at: EDDH (HAMBURG/FUHLSBUT, DE) observed 2020 UTC 18 October 2019
Temperature: 11.0°C (52°F)
Dewpoint: 7.0°C (45°F) [RH = 76%]
Pressure (altimeter): 29.70 inches Hg (1006.0 mb)
Winds: from the SSW (210 degrees) at 17 MPH (15 knots; 7.7 m/s)
Visibility: 6 or more miles (10+ km)
Ceiling: ceiling and visibility are OK
Clouds: unknown
Weather: no significant weather observed at this time

METAR text: EDDH 181950Z 20014KT CAVOK 11/07 Q1006 NOSIG
Conditions at: EDDH (HAMBURG/FUHLSBUT, DE) observed 1950 UTC 18 October 2019
Temperature: 11.0°C (52°F)
Dewpoint: 7.0°C (45°F) [RH = 76%]
Pressure (altimeter): 29.70 inches Hg (1006.0 mb)
Winds: from the SSW (200 degrees) at 16 MPH (14 knots; 7.2 m/s)
Visibility: 6 or more miles (10+ km)
Ceiling: ceiling and visibility are OK
Clouds: unknown
Weather: no significant weather observed at this time

METAR text: EDDH 181920Z 20012KT CAVOK 11/07 Q1005 NOSIG
Conditions at: EDDH (HAMBURG/FUHLSBUT, DE) observed 1920 UTC 18 October 2019
Temperature: 11.0°C (52°F)
Dewpoint: 7.0°C (45°F) [RH = 76%]
Pressure (altimeter): 29.68 inches Hg (1005.0 mb)
Winds: from the SSW (200 degrees) at 14 MPH (12 knots; 6.2 m/s)
Visibility: 6 or more miles (10+ km)
Ceiling: ceiling and visibility are OK
Clouds: unknown
Weather: no significant weather observed at this time

METAR text: EDDH 181850Z 20014KT CAVOK 11/08 Q1005 NOSIG
Conditions at: EDDH (HAMBURG/FUHLSBUT, DE) observed 1850 UTC 18 October 2019
Temperature: 11.0°C (52°F)
Dewpoint: 8.0°C (46°F) [RH = 82%]
Pressure (altimeter): 29.68 inches Hg (1005.0 mb)
Winds: from the SSW (200 degrees) at 16 MPH (14 knots; 7.2 m/s)
Visibility: 6 or more miles (10+ km)
Ceiling: ceiling and visibility are OK
Clouds: unknown
Weather: no significant weather observed at this time

METAR text: EDDH 181820Z 21012KT 9999 FEW038 12/08 Q1005 NOSIG
Conditions at: EDDH (HAMBURG/FUHLSBUT, DE) observed 1820 UTC 18 October 2019
Temperature: 12.0°C (54°F)
Dewpoint: 8.0°C (46°F) [RH = 76%]
Pressure (altimeter): 29.68 inches Hg (1005.0 mb)
Winds: from the SSW (210 degrees) at 14 MPH (12 knots; 6.2 m/s)
Visibility: 6 or more miles (10+ km)
Ceiling: at least 12,000 feet AGL
Clouds: few clouds at 3800 feet AGL
Weather: no significant weather observed at this time

METAR text: EDDH 181750Z 21012KT 9999 FEW036 12/08 Q1005 NOSIG
Conditions at: EDDH (HAMBURG/FUHLSBUT, DE) observed 1750 UTC 18 October 2019
Temperature: 12.0°C (54°F)
Dewpoint: 8.0°C (46°F) [RH = 76%]
Pressure (altimeter): 29.68 inches Hg (1005.0 mb)
Winds: from the SSW (210 degrees) at 14 MPH (12 knots; 6.2 m/s)
Visibility: 6 or more miles (10+ km)
Ceiling: at least 12,000 feet AGL
Clouds: few clouds at 3600 feet AGL
Weather: no significant weather observed at this time

METAR text: EDDH 181720Z 21015KT 9999 FEW030 12/08 Q1004 TEMPO 23015G25KT
Conditions at: EDDH (HAMBURG/FUHLSBUT, DE) observed 1720 UTC 18 October 2019
Temperature: 12.0°C (54°F)
Dewpoint: 8.0°C (46°F) [RH = 76%]
Pressure (altimeter): 29.65 inches Hg (1004.0 mb)
Winds: from the SSW (210 degrees) at 17 MPH (15 knots; 7.7 m/s)
Visibility: 6 or more miles (10+ km)
Ceiling: at least 12,000 feet AGL
Clouds: few clouds at 3000 feet AGL
Weather: no significant weather observed at this time

METAR text: EDDH 181650Z 21015KT 9999 FEW028 12/08 Q1004 TEMPO 23015G25KT
Conditions at: EDDH (HAMBURG/FUHLSBUT, DE) observed 1650 UTC 18 October 2019
Temperature: 12.0°C (54°F)
Dewpoint: 8.0°C (46°F) [RH = 76%]
Pressure (altimeter): 29.65 inches Hg (1004.0 mb)
Winds: from the SSW (210 degrees) at 17 MPH (15 knots; 7.7 m/s)
Visibility: 6 or more miles (10+ km)
Ceiling: at least 12,000 feet AGL
Clouds: few clouds at 2800 feet AGL
Weather: no significant weather observed at this time

METAR text: EDDH 181620Z 21016KT 9999 SCT024 12/08 Q1004 TEMPO 23015G25KT
Conditions at: EDDH (HAMBURG/FUHLSBUT, DE) observed 1620 UTC 18 October 2019
Temperature: 12.0°C (54°F)
Dewpoint: 8.0°C (46°F) [RH = 76%]
Pressure (altimeter): 29.65 inches Hg (1004.0 mb)
Winds: from the SSW (210 degrees) at 18 MPH (16 knots; 8.2 m/s)
Visibility: 6 or more miles (10+ km)
Ceiling: at least 12,000 feet AGL
Clouds: scattered clouds at 2400 feet AGL
Weather: no significant weather observed at this time

METAR text: EDDH 181550Z 21017KT 9999 -SHRA FEW022 SCT025CB 13/09 Q1003 TEMPO 23015G25KT
Conditions at: EDDH (HAMBURG/FUHLSBUT, DE) observed 1550 UTC 18 October 2019
Temperature: 13.0°C (55°F)
Dewpoint: 9.0°C (48°F) [RH = 77%]
Pressure (altimeter): 29.62 inches Hg (1003.0 mb)
Winds: from the SSW (210 degrees) at 20 MPH (17 knots; 8.7 m/s)
Visibility: 6 or more miles (10+ km)
Ceiling: at least 12,000 feet AGL
Clouds: few clouds at 2200 feet AGL
scattered clouds at 2500 feet AGL
Weather: -SHRA  (light rain showers)

METAR text: EDDH 181520Z 21017KT 9999 -SHRA FEW030CB 13/09 Q1003 TEMPO 23015G25KT
Conditions at: EDDH (HAMBURG/FUHLSBUT, DE) observed 1520 UTC 18 October 2019
Temperature: 13.0°C (55°F)
Dewpoint: 9.0°C (48°F) [RH = 77%]
Pressure (altimeter): 29.62 inches Hg (1003.0 mb)
Winds: from the SSW (210 degrees) at 20 MPH (17 knots; 8.7 m/s)
Visibility: 6 or more miles (10+ km)
Ceiling: at least 12,000 feet AGL
Clouds: few clouds at 3000 feet AGL
Weather: -SHRA  (light rain showers)

METAR text: EDDH 181450Z 21017KT 9999 FEW015 FEW030CB 13/09 Q1003 TEMPO 23015G25KT
Conditions at: EDDH (HAMBURG/FUHLSBUT, DE) observed 1450 UTC 18 October 2019
Temperature: 13.0°C (55°F)
Dewpoint: 9.0°C (48°F) [RH = 77%]
Pressure (altimeter): 29.62 inches Hg (1003.0 mb)
Winds: from the SSW (210 degrees) at 20 MPH (17 knots; 8.7 m/s)
Visibility: 6 or more miles (10+ km)
Ceiling: at least 12,000 feet AGL
Clouds: few clouds at 1500 feet AGL
few clouds at 3000 feet AGL
Weather: no significant weather observed at this time

METAR text: EDDH 181420Z 23016KT 9999 -SHRA SCT030CB 13/09 Q1002 RESHRA TEMPO 23015G25KT
Conditions at: EDDH (HAMBURG/FUHLSBUT, DE) observed 1420 UTC 18 October 2019
Temperature: 13.0°C (55°F)
Dewpoint: 9.0°C (48°F) [RH = 77%]
Pressure (altimeter): 29.59 inches Hg (1002.0 mb)
Winds: from the SW (230 degrees) at 18 MPH (16 knots; 8.2 m/s)
Visibility: 6 or more miles (10+ km)
Ceiling: at least 12,000 feet AGL
Clouds: scattered clouds at 3000 feet AGL
Weather: -SHRA  (light rain showers)

METAR text: EDDH 181350Z 15014KT 9999 -SHRA SCT030CB 17/12 Q1001 TEMPO 21025G50KT 4000 TSRA BKN020CB
Conditions at: EDDH (HAMBURG/FUHLSBUT, DE) observed 1350 UTC 18 October 2019
Temperature: 17.0°C (63°F)
Dewpoint: 12.0°C (54°F) [RH = 72%]
Pressure (altimeter): 29.56 inches Hg (1001.0 mb)
Winds: from the SSE (150 degrees) at 16 MPH (14 knots; 7.2 m/s)
Visibility: 6 or more miles (10+ km)
Ceiling: at least 12,000 feet AGL
Clouds: scattered clouds at 3000 feet AGL
Weather: -SHRA  (light rain showers)

METAR text: EDDH 181320Z 17015KT 9999 SCT030 17/12 Q1002 TEMPO FM1345 21025G50KT 4000 TSRA BKN020CB
Conditions at: EDDH (HAMBURG/FUHLSBUT, DE) observed 1320 UTC 18 October 2019
Temperature: 17.0°C (63°F)
Dewpoint: 12.0°C (54°F) [RH = 72%]
Pressure (altimeter): 29.59 inches Hg (1002.0 mb)
Winds: from the S (170 degrees) at 17 MPH (15 knots; 7.7 m/s)
Visibility: 6 or more miles (10+ km)
Ceiling: at least 12,000 feet AGL
Clouds: scattered clouds at 3000 feet AGL
Weather: no significant weather observed at this time

METAR text: EDDH 181250Z 17015KT 9999 SCT028 17/11 Q1002 TEMPO FM1340 21020G35KT 4500 SHRA BKN020CB
Conditions at: EDDH (HAMBURG/FUHLSBUT, DE) observed 1250 UTC 18 October 2019
Temperature: 17.0°C (63°F)
Dewpoint: 11.0°C (52°F) [RH = 68%]
Pressure (altimeter): 29.59 inches Hg (1002.0 mb)
Winds: from the S (170 degrees) at 17 MPH (15 knots; 7.7 m/s)
Visibility: 6 or more miles (10+ km)
Ceiling: at least 12,000 feet AGL
Clouds: scattered clouds at 2800 feet AGL
Weather: no significant weather observed at this time

METAR text: EDDH 181220Z 18015KT 9999 SCT025 18/12 Q1003 TEMPO FM1340 21020G35KT 4500 SHRA BKN020CB
Conditions at: EDDH (HAMBURG/FUHLSBUT, DE) observed 1220 UTC 18 October 2019
Temperature: 18.0°C (64°F)
Dewpoint: 12.0°C (54°F) [RH = 68%]
Pressure (altimeter): 29.62 inches Hg (1003.0 mb)
Winds: from the S (180 degrees) at 17 MPH (15 knots; 7.7 m/s)
Visibility: 6 or more miles (10+ km)
Ceiling: at least 12,000 feet AGL
Clouds: scattered clouds at 2500 feet AGL
Weather: no significant weather observed at this time

METAR text: EDDH 181150Z 18013KT 9999 SCT024 17/11 Q1003 NOSIG
Conditions at: EDDH (HAMBURG/FUHLSBUT, DE) observed 1150 UTC 18 October 2019
Temperature: 17.0°C (63°F)
Dewpoint: 11.0°C (52°F) [RH = 68%]
Pressure (altimeter): 29.62 inches Hg (1003.0 mb)
Winds: from the S (180 degrees) at 15 MPH (13 knots; 6.7 m/s)
Visibility: 6 or more miles (10+ km)
Ceiling: at least 12,000 feet AGL
Clouds: scattered clouds at 2400 feet AGL
Weather: no significant weather observed at this time

METAR text: EDDH 181120Z 18013KT 9999 FEW022 17/12 Q1004 NOSIG
Conditions at: EDDH (HAMBURG/FUHLSBUT, DE) observed 1120 UTC 18 October 2019
Temperature: 17.0°C (63°F)
Dewpoint: 12.0°C (54°F) [RH = 72%]
Pressure (altimeter): 29.65 inches Hg (1004.0 mb)
Winds: from the S (180 degrees) at 15 MPH (13 knots; 6.7 m/s)
Visibility: 6 or more miles (10+ km)
Ceiling: at least 12,000 feet AGL
Clouds: few clouds at 2200 feet AGL
Weather: no significant weather observed at this time

METAR text: EDDH 181050Z 17011KT 9999 FEW026 16/12 Q1005 NOSIG
Conditions at: EDDH (HAMBURG/FUHLSBUT, DE) observed 1050 UTC 18 October 2019
Temperature: 16.0°C (61°F)
Dewpoint: 12.0°C (54°F) [RH = 77%]
Pressure (altimeter): 29.68 inches Hg (1005.0 mb)
Winds: from the S (170 degrees) at 13 MPH (11 knots; 5.7 m/s)
Visibility: 6 or more miles (10+ km)
Ceiling: at least 12,000 feet AGL
Clouds: few clouds at 2600 feet AGL
Weather: no significant weather observed at this time

METAR text: EDDH 181020Z 17012KT 9999 FEW025 SCT042 16/12 Q1005 NOSIG
Conditions at: EDDH (HAMBURG/FUHLSBUT, DE) observed 1020 UTC 18 October 2019
Temperature: 16.0°C (61°F)
Dewpoint: 12.0°C (54°F) [RH = 77%]
Pressure (altimeter): 29.68 inches Hg (1005.0 mb)
Winds: from the S (170 degrees) at 14 MPH (12 knots; 6.2 m/s)
Visibility: 6 or more miles (10+ km)
Ceiling: at least 12,000 feet AGL
Clouds: few clouds at 2500 feet AGL
scattered clouds at 4200 feet AGL
Weather: no significant weather observed at this time

METAR text: EDDH 180950Z 17011KT 9999 FEW020 15/12 Q1005 NOSIG
Conditions at: EDDH (HAMBURG/FUHLSBUT, DE) observed 0950 UTC 18 October 2019
Temperature: 15.0°C (59°F)
Dewpoint: 12.0°C (54°F) [RH = 82%]
Pressure (altimeter): 29.68 inches Hg (1005.0 mb)
Winds: from the S (170 degrees) at 13 MPH (11 knots; 5.7 m/s)
Visibility: 6 or more miles (10+ km)
Ceiling: at least 12,000 feet AGL
Clouds: few clouds at 2000 feet AGL
Weather: no significant weather observed at this time

METAR text: EDDH 180920Z 16011KT 9999 FEW018 15/12 Q1006 NOSIG
Conditions at: EDDH (HAMBURG/FUHLSBUT, DE) observed 0920 UTC 18 October 2019
Temperature: 15.0°C (59°F)
Dewpoint: 12.0°C (54°F) [RH = 82%]
Pressure (altimeter): 29.70 inches Hg (1006.0 mb)
Winds: from the SSE (160 degrees) at 13 MPH (11 knots; 5.7 m/s)
Visibility: 6 or more miles (10+ km)
Ceiling: at least 12,000 feet AGL
Clouds: few clouds at 1800 feet AGL
Weather: no significant weather observed at this time

METAR text: EDDH 180850Z 16010KT 9999 FEW013 15/12 Q1006 NOSIG
Conditions at: EDDH (HAMBURG/FUHLSBUT, DE) observed 0850 UTC 18 October 2019
Temperature: 15.0°C (59°F)
Dewpoint: 12.0°C (54°F) [RH = 82%]
Pressure (altimeter): 29.70 inches Hg (1006.0 mb)
Winds: from the SSE (160 degrees) at 12 MPH (10 knots; 5.1 m/s)
Visibility: 6 or more miles (10+ km)
Ceiling: at least 12,000 feet AGL
Clouds: few clouds at 1300 feet AGL
Weather: no significant weather observed at this time

METAR text: EDDH 180820Z 15009KT 9999 FEW010 14/13 Q1006 NOSIG
Conditions at: EDDH (HAMBURG/FUHLSBUT, DE) observed 0820 UTC 18 October 2019
Temperature: 14.0°C (57°F)
Dewpoint: 13.0°C (55°F) [RH = 94%]
Pressure (altimeter): 29.70 inches Hg (1006.0 mb)
Winds: from the SSE (150 degrees) at 10 MPH (9 knots; 4.6 m/s)
Visibility: 6 or more miles (10+ km)
Ceiling: at least 12,000 feet AGL
Clouds: few clouds at 1000 feet AGL
Weather: no significant weather observed at this time

METAR text: EDDH 180750Z 15011KT 9999 FEW013 14/12 Q1006 NOSIG
Conditions at: EDDH (HAMBURG/FUHLSBUT, DE) observed 0750 UTC 18 October 2019
Temperature: 14.0°C (57°F)
Dewpoint: 12.0°C (54°F) [RH = 88%]
Pressure (altimeter): 29.70 inches Hg (1006.0 mb)
Winds: from the SSE (150 degrees) at 13 MPH (11 knots; 5.7 m/s)
Visibility: 6 or more miles (10+ km)
Ceiling: at least 12,000 feet AGL
Clouds: few clouds at 1300 feet AGL
Weather: no significant weather observed at this time

METAR text: EDDH 180720Z 15008KT 9999 FEW022 14/12 Q1007 NOSIG
Conditions at: EDDH (HAMBURG/FUHLSBUT, DE) observed 0720 UTC 18 October 2019
Temperature: 14.0°C (57°F)
Dewpoint: 12.0°C (54°F) [RH = 88%]
Pressure (altimeter): 29.73 inches Hg (1007.0 mb)
Winds: from the SSE (150 degrees) at 9 MPH (8 knots; 4.1 m/s)
Visibility: 6 or more miles (10+ km)
Ceiling: at least 12,000 feet AGL
Clouds: few clouds at 2200 feet AGL
Weather: no significant weather observed at this time

METAR text: EDDH 180650Z 15007KT 9999 FEW022 13/12 Q1007 NOSIG
Conditions at: EDDH (HAMBURG/FUHLSBUT, DE) observed 0650 UTC 18 October 2019
Temperature: 13.0°C (55°F)
Dewpoint: 12.0°C (54°F) [RH = 94%]
Pressure (altimeter): 29.73 inches Hg (1007.0 mb)
Winds: from the SSE (150 degrees) at 8 MPH (7 knots; 3.6 m/s)
Visibility: 6 or more miles (10+ km)
Ceiling: at least 12,000 feet AGL
Clouds: few clouds at 2200 feet AGL
Weather: no significant weather observed at this time

METAR text: EDDH 180620Z 18009KT 9999 FEW012 14/12 Q1007 NOSIG
Conditions at: EDDH (HAMBURG/FUHLSBUT, DE) observed 0620 UTC 18 October 2019
Temperature: 14.0°C (57°F)
Dewpoint: 12.0°C (54°F) [RH = 88%]
Pressure (altimeter): 29.73 inches Hg (1007.0 mb)
Winds: from the S (180 degrees) at 10 MPH (9 knots; 4.6 m/s)
Visibility: 6 or more miles (10+ km)
Ceiling: at least 12,000 feet AGL
Clouds: few clouds at 1200 feet AGL
Weather: no significant weather observed at this time

METAR text: EDDH 180550Z 18007KT 9999 FEW013 13/12 Q1007 NOSIG
Conditions at: EDDH (HAMBURG/FUHLSBUT, DE) observed 0550 UTC 18 October 2019
Temperature: 13.0°C (55°F)
Dewpoint: 12.0°C (54°F) [RH = 94%]
Pressure (altimeter): 29.73 inches Hg (1007.0 mb)
Winds: from the S (180 degrees) at 8 MPH (7 knots; 3.6 m/s)
Visibility: 6 or more miles (10+ km)
Ceiling: at least 12,000 feet AGL
Clouds: few clouds at 1300 feet AGL
Weather: no significant weather observed at this time

METAR text: EDDH 180520Z 18009KT 9999 FEW010 13/12 Q1007 TEMPO BKN010
Conditions at: EDDH (HAMBURG/FUHLSBUT, DE) observed 0520 UTC 18 October 2019
Temperature: 13.0°C (55°F)
Dewpoint: 12.0°C (54°F) [RH = 94%]
Pressure (altimeter): 29.73 inches Hg (1007.0 mb)
Winds: from the S (180 degrees) at 10 MPH (9 knots; 4.6 m/s)
Visibility: 6 or more miles (10+ km)
Ceiling: at least 12,000 feet AGL
Clouds: few clouds at 1000 feet AGL
Weather: no significant weather observed at this time

METAR text: EDDH 180450Z 20007KT 9999 FEW008 SCT010 13/12 Q1007 TEMPO BKN010
Conditions at: EDDH (HAMBURG/FUHLSBUT, DE) observed 0450 UTC 18 October 2019
Temperature: 13.0°C (55°F)
Dewpoint: 12.0°C (54°F) [RH = 94%]
Pressure (altimeter): 29.73 inches Hg (1007.0 mb)
Winds: from the SSW (200 degrees) at 8 MPH (7 knots; 3.6 m/s)
Visibility: 6 or more miles (10+ km)
Ceiling: at least 12,000 feet AGL
Clouds: few clouds at 800 feet AGL
scattered clouds at 1000 feet AGL
Weather: no significant weather observed at this time

METAR text: EDDH 180420Z 19007KT 9999 FEW007 SCT011 13/12 Q1007 TEMPO BKN010
Conditions at: EDDH (HAMBURG/FUHLSBUT, DE) observed 0420 UTC 18 October 2019
Temperature: 13.0°C (55°F)
Dewpoint: 12.0°C (54°F) [RH = 94%]
Pressure (altimeter): 29.73 inches Hg (1007.0 mb)
Winds: from the S (190 degrees) at 8 MPH (7 knots; 3.6 m/s)
Visibility: 6 or more miles (10+ km)
Ceiling: at least 12,000 feet AGL
Clouds: few clouds at 700 feet AGL
scattered clouds at 1100 feet AGL
Weather: no significant weather observed at this time

METAR text: EDDH 180350Z 20007KT 9999 FEW007 SCT010 14/12 Q1008 TEMPO BKN010
Conditions at: EDDH (HAMBURG/FUHLSBUT, DE) observed 0350 UTC 18 October 2019
Temperature: 14.0°C (57°F)
Dewpoint: 12.0°C (54°F) [RH = 88%]
Pressure (altimeter): 29.76 inches Hg (1008.0 mb)
Winds: from the SSW (200 degrees) at 8 MPH (7 knots; 3.6 m/s)
Visibility: 6 or more miles (10+ km)
Ceiling: at least 12,000 feet AGL
Clouds: few clouds at 700 feet AGL
scattered clouds at 1000 feet AGL
Weather: no significant weather observed at this time

METAR text: EDDH 180320Z 19005KT 9999 FEW008 BKN010 14/13 Q1008 BECMG BKN015
Conditions at: EDDH (HAMBURG/FUHLSBUT, DE) observed 0320 UTC 18 October 2019
Temperature: 14.0°C (57°F)
Dewpoint: 13.0°C (55°F) [RH = 94%]
Pressure (altimeter): 29.76 inches Hg (1008.0 mb)
Winds: from the S (190 degrees) at 6 MPH (5 knots; 2.6 m/s)
Visibility: 6 or more miles (10+ km)
Ceiling: 1000 feet AGL
Clouds: few clouds at 800 feet AGL
broken clouds at 1000 feet AGL
Weather: no significant weather observed at this time

METAR text: EDDH 180250Z 21004KT 9999 FEW008 BKN010 14/13 Q1008 BECMG BKN015
Conditions at: EDDH (HAMBURG/FUHLSBUT, DE) observed 0250 UTC 18 October 2019
Temperature: 14.0°C (57°F)
Dewpoint: 13.0°C (55°F) [RH = 94%]
Pressure (altimeter): 29.76 inches Hg (1008.0 mb)
Winds: from the SSW (210 degrees) at 5 MPH (4 knots; 2.1 m/s)
Visibility: 6 or more miles (10+ km)
Ceiling: 1000 feet AGL
Clouds: few clouds at 800 feet AGL
broken clouds at 1000 feet AGL
Weather: no significant weather observed at this time

METAR text: EDDH 180220Z 20006KT 9999 BKN010 BKN020 14/13 Q1008 BECMG BKN015
Conditions at: EDDH (HAMBURG/FUHLSBUT, DE) observed 0220 UTC 18 October 2019
Temperature: 14.0°C (57°F)
Dewpoint: 13.0°C (55°F) [RH = 94%]
Pressure (altimeter): 29.76 inches Hg (1008.0 mb)
Winds: from the SSW (200 degrees) at 7 MPH (6 knots; 3.1 m/s)
Visibility: 6 or more miles (10+ km)
Ceiling: 1000 feet AGL
Clouds: broken clouds at 1000 feet AGL
broken clouds at 2000 feet AGL
Weather: no significant weather observed at this time

METAR text: EDDH 180150Z 20006KT 9999 SCT010 BKN013 14/13 Q1008 BECMG BKN015
Conditions at: EDDH (HAMBURG/FUHLSBUT, DE) observed 0150 UTC 18 October 2019
Temperature: 14.0°C (57°F)
Dewpoint: 13.0°C (55°F) [RH = 94%]
Pressure (altimeter): 29.76 inches Hg (1008.0 mb)
Winds: from the SSW (200 degrees) at 7 MPH (6 knots; 3.1 m/s)
Visibility: 6 or more miles (10+ km)
Ceiling: 1300 feet AGL
Clouds: scattered clouds at 1000 feet AGL
broken clouds at 1300 feet AGL
Weather: no significant weather observed at this time

METAR text: EDDH 180120Z 17009KT 9999 SCT006 BKN010 14/13 Q1008 BECMG BKN015
Conditions at: EDDH (HAMBURG/FUHLSBUT, DE) observed 0120 UTC 18 October 2019
Temperature: 14.0°C (57°F)
Dewpoint: 13.0°C (55°F) [RH = 94%]
Pressure (altimeter): 29.76 inches Hg (1008.0 mb)
Winds: from the S (170 degrees) at 10 MPH (9 knots; 4.6 m/s)
Visibility: 6 or more miles (10+ km)
Ceiling: 1000 feet AGL
Clouds: scattered clouds at 600 feet AGL
broken clouds at 1000 feet AGL
Weather: no significant weather observed at this time

METAR text: EDDH 180050Z 16009KT 8000 -RADZ BKN006 14/13 Q1008 TEMPO BKN013
Conditions at: EDDH (HAMBURG/FUHLSBUT, DE) observed 0050 UTC 18 October 2019
Temperature: 14.0°C (57°F)
Dewpoint: 13.0°C (55°F) [RH = 94%]
Pressure (altimeter): 29.76 inches Hg (1008.0 mb)
Winds: from the SSE (160 degrees) at 10 MPH (9 knots; 4.6 m/s)
Visibility: 5 miles ( 8 km)
Ceiling: 600 feet AGL
Clouds: broken clouds at 600 feet AGL
Weather: -RA -DZ  (light rain, light drizzle)

METAR text: EDDH 180020Z 16009KT 6000 -RADZ SCT006 BKN009 14/13 Q1008 TEMPO BKN013
Conditions at: EDDH (HAMBURG/FUHLSBUT, DE) observed 0020 UTC 18 October 2019
Temperature: 14.0°C (57°F)
Dewpoint: 13.0°C (55°F) [RH = 94%]
Pressure (altimeter): 29.76 inches Hg (1008.0 mb)
Winds: from the SSE (160 degrees) at 10 MPH (9 knots; 4.6 m/s)
Visibility: 4 miles ( 6 km)
Ceiling: 900 feet AGL
Clouds: scattered clouds at 600 feet AGL
broken clouds at 900 feet AGL
Weather: -RA -DZ  (light rain, light drizzle)

METAR text: EDDH 172350Z 16009KT 7000 -RADZ FEW007 BKN011 14/13 Q1008 TEMPO BKN007
Conditions at: EDDH (HAMBURG/FUHLSBUT, DE) observed 2350 UTC 17 October 2019
Temperature: 14.0°C (57°F)
Dewpoint: 13.0°C (55°F) [RH = 94%]
Pressure (altimeter): 29.76 inches Hg (1008.0 mb)
Winds: from the SSE (160 degrees) at 10 MPH (9 knots; 4.6 m/s)
Visibility: 4 miles ( 7 km)
Ceiling: 1100 feet AGL
Clouds: few clouds at 700 feet AGL
broken clouds at 1100 feet AGL
Weather: -RA -DZ  (light rain, light drizzle)

METAR text: EDDH 172320Z 15008KT 9999 -RA FEW010 SCT022 BKN035 14/13 Q1009 NOSIG
Conditions at: EDDH (HAMBURG/FUHLSBUT, DE) observed 2320 UTC 17 October 2019
Temperature: 14.0°C (57°F)
Dewpoint: 13.0°C (55°F) [RH = 94%]
Pressure (altimeter): 29.79 inches Hg (1009.0 mb)
Winds: from the SSE (150 degrees) at 9 MPH (8 knots; 4.1 m/s)
Visibility: 6 or more miles (10+ km)
Ceiling: 3500 feet AGL
Clouds: few clouds at 1000 feet AGL
scattered clouds at 2200 feet AGL
broken clouds at 3500 feet AGL
Weather: -RA  (light rain)

METAR text: EDDH 172250Z 15006KT 9999 -RA BKN021 13/12 Q1009 NOSIG
Conditions at: EDDH (HAMBURG/FUHLSBUT, DE) observed 2250 UTC 17 October 2019
Temperature: 13.0°C (55°F)
Dewpoint: 12.0°C (54°F) [RH = 94%]
Pressure (altimeter): 29.79 inches Hg (1009.0 mb)
Winds: from the SSE (150 degrees) at 7 MPH (6 knots; 3.1 m/s)
Visibility: 6 or more miles (10+ km)
Ceiling: 2100 feet AGL
Clouds: broken clouds at 2100 feet AGL
Weather: -RA  (light rain)

METAR text: EDDH 172220Z 15006KT 9999 -RA FEW011 BKN021 13/12 Q1009 NOSIG
Conditions at: EDDH (HAMBURG/FUHLSBUT, DE) observed 2220 UTC 17 October 2019
Temperature: 13.0°C (55°F)
Dewpoint: 12.0°C (54°F) [RH = 94%]
Pressure (altimeter): 29.79 inches Hg (1009.0 mb)
Winds: from the SSE (150 degrees) at 7 MPH (6 knots; 3.1 m/s)
Visibility: 6 or more miles (10+ km)
Ceiling: 2100 feet AGL
Clouds: few clouds at 1100 feet AGL
broken clouds at 2100 feet AGL
Weather: -RA  (light rain)

METAR text: EDDH 172150Z 15007KT 9999 -RA FEW012 BKN029 13/12 Q1009 NOSIG
Conditions at: EDDH (HAMBURG/FUHLSBUT, DE) observed 2150 UTC 17 October 2019
Temperature: 13.0°C (55°F)
Dewpoint: 12.0°C (54°F) [RH = 94%]
Pressure (altimeter): 29.79 inches Hg (1009.0 mb)
Winds: from the SSE (150 degrees) at 8 MPH (7 knots; 3.6 m/s)
Visibility: 6 or more miles (10+ km)
Ceiling: 2900 feet AGL
Clouds: few clouds at 1200 feet AGL
broken clouds at 2900 feet AGL
Weather: -RA  (light rain)

METAR text: EDDH 172120Z 14007KT 9999 -RA FEW025 BKN033 13/12 Q1010 NOSIG
Conditions at: EDDH (HAMBURG/FUHLSBUT, DE) observed 2120 UTC 17 October 2019
Temperature: 13.0°C (55°F)
Dewpoint: 12.0°C (54°F) [RH = 94%]
Pressure (altimeter): 29.82 inches Hg (1010.0 mb)
Winds: from the SE (140 degrees) at 8 MPH (7 knots; 3.6 m/s)
Visibility: 6 or more miles (10+ km)
Ceiling: 3300 feet AGL
Clouds: few clouds at 2500 feet AGL
broken clouds at 3300 feet AGL
Weather: -RA  (light rain)

METAR text: EDDH 172050Z 12007KT 9999 FEW010 BKN035 13/12 Q1010 NOSIG
Conditions at: EDDH (HAMBURG/FUHLSBUT, DE) observed 2050 UTC 17 October 2019
Temperature: 13.0°C (55°F)
Dewpoint: 12.0°C (54°F) [RH = 94%]
Pressure (altimeter): 29.82 inches Hg (1010.0 mb)
Winds: from the ESE (120 degrees) at 8 MPH (7 knots; 3.6 m/s)
Visibility: 6 or more miles (10+ km)
Ceiling: 3500 feet AGL
Clouds: few clouds at 1000 feet AGL
broken clouds at 3500 feet AGL
Weather: no significant weather observed at this time

METAR text: EDDH 172020Z 15005KT 120V180 9999 -RA FEW022 BKN044 13/12 Q1010 NOSIG
Conditions at: EDDH (HAMBURG/FUHLSBUT, DE) observed 2020 UTC 17 October 2019
Temperature: 13.0°C (55°F)
Dewpoint: 12.0°C (54°F) [RH = 94%]
Pressure (altimeter): 29.82 inches Hg (1010.0 mb)
Winds: from the SSE (150 degrees) at 6 MPH (5 knots; 2.6 m/s)
Visibility: 6 or more miles (10+ km)
Ceiling: 4400 feet AGL
Clouds: few clouds at 2200 feet AGL
broken clouds at 4400 feet AGL
Weather: -RA  (light rain)

METAR text: EDDH 171950Z 13005KT 100V180 9999 FEW020 13/12 Q1010 NOSIG
Conditions at: EDDH (HAMBURG/FUHLSBUT, DE) observed 1950 UTC 17 October 2019
Temperature: 13.0°C (55°F)
Dewpoint: 12.0°C (54°F) [RH = 94%]
Pressure (altimeter): 29.82 inches Hg (1010.0 mb)
Winds: from the SE (130 degrees) at 6 MPH (5 knots; 2.6 m/s)
Visibility: 6 or more miles (10+ km)
Ceiling: at least 12,000 feet AGL
Clouds: few clouds at 2000 feet AGL
Weather: no significant weather observed at this time

METAR text: EDDH 171920Z 13005KT CAVOK 13/12 Q1010 NOSIG
Conditions at: EDDH (HAMBURG/FUHLSBUT, DE) observed 1920 UTC 17 October 2019
Temperature: 13.0°C (55°F)
Dewpoint: 12.0°C (54°F) [RH = 94%]
Pressure (altimeter): 29.82 inches Hg (1010.0 mb)
Winds: from the SE (130 degrees) at 6 MPH (5 knots; 2.6 m/s)
Visibility: 6 or more miles (10+ km)
Ceiling: ceiling and visibility are OK
Clouds: unknown
Weather: no significant weather observed at this time

METAR text: EDDH 171850Z 10004KT 9999 2500NW R15/0750V1600U BCFG FEW038 12/11 Q1010 NOSIG
Conditions at: EDDH (HAMBURG/FUHLSBUT, DE) observed 1850 UTC 17 October 2019
Temperature: 12.0°C (54°F)
Dewpoint: 11.0°C (52°F) [RH = 94%]
Pressure (altimeter): 29.82 inches Hg (1010.0 mb)
Winds: from the E (100 degrees) at 5 MPH (4 knots; 2.1 m/s)
Visibility: 6 or more miles (10+ km)
Ceiling: at least 12,000 feet AGL
Clouds: few clouds at 3800 feet AGL
Weather: BCFG  (patches of fog)

METAR text: EDDH 171820Z VRB01KT 9999 BKN038 13/12 Q1010 NOSIG
Conditions at: EDDH (HAMBURG/FUHLSBUT, DE) observed 1820 UTC 17 October 2019
Temperature: 13.0°C (55°F)
Dewpoint: 12.0°C (54°F) [RH = 94%]
Pressure (altimeter): 29.82 inches Hg (1010.0 mb)
Winds: variable direction winds at 1 MPH (1 knots; 0.5 m/s)
Visibility: 6 or more miles (10+ km)
Ceiling: 3800 feet AGL
Clouds: broken clouds at 3800 feet AGL
Weather: no significant weather observed at this time

METAR text: EDDH 171750Z VRB02KT 9999 BKN040 13/13 Q1011 NOSIG
Conditions at: EDDH (HAMBURG/FUHLSBUT, DE) observed 1750 UTC 17 October 2019
Temperature: 13.0°C (55°F)
Dewpoint: 13.0°C (55°F) [RH = 100%]
Pressure (altimeter): 29.85 inches Hg (1011.0 mb)
Winds: variable direction winds at 2 MPH (2 knots; 1.0 m/s)
Visibility: 6 or more miles (10+ km)
Ceiling: 4000 feet AGL
Clouds: broken clouds at 4000 feet AGL
Weather: no significant weather observed at this time

METAR text: EDDH 171720Z VRB01KT 9999 BKN040 13/13 Q1010 NOSIG
Conditions at: EDDH (HAMBURG/FUHLSBUT, DE) observed 1720 UTC 17 October 2019
Temperature: 13.0°C (55°F)
Dewpoint: 13.0°C (55°F) [RH = 100%]
Pressure (altimeter): 29.82 inches Hg (1010.0 mb)
Winds: variable direction winds at 1 MPH (1 knots; 0.5 m/s)
Visibility: 6 or more miles (10+ km)
Ceiling: 4000 feet AGL
Clouds: broken clouds at 4000 feet AGL
Weather: no significant weather observed at this time

METAR text: EDDH 171650Z VRB02KT 9999 BKN040 14/13 Q1010 NOSIG
Conditions at: EDDH (HAMBURG/FUHLSBUT, DE) observed 1650 UTC 17 October 2019
Temperature: 14.0°C (57°F)
Dewpoint: 13.0°C (55°F) [RH = 94%]
Pressure (altimeter): 29.82 inches Hg (1010.0 mb)
Winds: variable direction winds at 2 MPH (2 knots; 1.0 m/s)
Visibility: 6 or more miles (10+ km)
Ceiling: 4000 feet AGL
Clouds: broken clouds at 4000 feet AGL
Weather: no significant weather observed at this time

METAR text: EDDH 171620Z VRB02KT 9999 FEW007 BKN040 14/13 Q1010 NOSIG
Conditions at: EDDH (HAMBURG/FUHLSBUT, DE) observed 1620 UTC 17 October 2019
Temperature: 14.0°C (57°F)
Dewpoint: 13.0°C (55°F) [RH = 94%]
Pressure (altimeter): 29.82 inches Hg (1010.0 mb)
Winds: variable direction winds at 2 MPH (2 knots; 1.0 m/s)
Visibility: 6 or more miles (10+ km)
Ceiling: 4000 feet AGL
Clouds: few clouds at 700 feet AGL
broken clouds at 4000 feet AGL
Weather: no significant weather observed at this time

METAR text: EDDH 171550Z 22004KT 190V250 9999 FEW005 SCT041 14/13 Q1010 NOSIG
Conditions at: EDDH (HAMBURG/FUHLSBUT, DE) observed 1550 UTC 17 October 2019
Temperature: 14.0°C (57°F)
Dewpoint: 13.0°C (55°F) [RH = 94%]
Pressure (altimeter): 29.82 inches Hg (1010.0 mb)
Winds: from the SW (220 degrees) at 5 MPH (4 knots; 2.1 m/s)
Visibility: 6 or more miles (10+ km)
Ceiling: at least 12,000 feet AGL
Clouds: few clouds at 500 feet AGL
scattered clouds at 4100 feet AGL
Weather: no significant weather observed at this time

METAR text: EDDH 171520Z 20004KT 9999 FEW004 SCT042 14/13 Q1010 NOSIG
Conditions at: EDDH (HAMBURG/FUHLSBUT, DE) observed 1520 UTC 17 October 2019
Temperature: 14.0°C (57°F)
Dewpoint: 13.0°C (55°F) [RH = 94%]
Pressure (altimeter): 29.82 inches Hg (1010.0 mb)
Winds: from the SSW (200 degrees) at 5 MPH (4 knots; 2.1 m/s)
Visibility: 6 or more miles (10+ km)
Ceiling: at least 12,000 feet AGL
Clouds: few clouds at 400 feet AGL
scattered clouds at 4200 feet AGL
Weather: no significant weather observed at this time

METAR text: EDDH 171450Z 23004KT 210V270 9999 FEW004 SCT038 15/13 Q1010 NOSIG
Conditions at: EDDH (HAMBURG/FUHLSBUT, DE) observed 1450 UTC 17 October 2019
Temperature: 15.0°C (59°F)
Dewpoint: 13.0°C (55°F) [RH = 88%]
Pressure (altimeter): 29.82 inches Hg (1010.0 mb)
Winds: from the SW (230 degrees) at 5 MPH (4 knots; 2.1 m/s)
Visibility: 6 or more miles (10+ km)
Ceiling: at least 12,000 feet AGL
Clouds: few clouds at 400 feet AGL
scattered clouds at 3800 feet AGL
Weather: no significant weather observed at this time

METAR text: EDDH 171420Z 22003KT 190V260 9999 FEW004 15/13 Q1010 NOSIG
Conditions at: EDDH (HAMBURG/FUHLSBUT, DE) observed 1420 UTC 17 October 2019
Temperature: 15.0°C (59°F)
Dewpoint: 13.0°C (55°F) [RH = 88%]
Pressure (altimeter): 29.82 inches Hg (1010.0 mb)
Winds: from the SW (220 degrees) at 3 MPH (3 knots; 1.5 m/s)
Visibility: 6 or more miles (10+ km)
Ceiling: at least 12,000 feet AGL
Clouds: few clouds at 400 feet AGL
Weather: no significant weather observed at this time

METAR text: EDDH 171350Z VRB02KT 9999 FEW005 BKN030 14/13 Q1010 BECMG 23009KT
Conditions at: EDDH (HAMBURG/FUHLSBUT, DE) observed 1350 UTC 17 October 2019
Temperature: 14.0°C (57°F)
Dewpoint: 13.0°C (55°F) [RH = 94%]
Pressure (altimeter): 29.82 inches Hg (1010.0 mb)
Winds: variable direction winds at 2 MPH (2 knots; 1.0 m/s)
Visibility: 6 or more miles (10+ km)
Ceiling: 3000 feet AGL
Clouds: few clouds at 500 feet AGL
broken clouds at 3000 feet AGL
Weather: no significant weather observed at this time

METAR text: EDDH 171320Z 29007KT 5000 -SHRA SCT004 BKN026 14/13 Q1010 RESHRA BECMG 23009KT
Conditions at: EDDH (HAMBURG/FUHLSBUT, DE) observed 1320 UTC 17 October 2019
Temperature: 14.0°C (57°F)
Dewpoint: 13.0°C (55°F) [RH = 94%]
Pressure (altimeter): 29.82 inches Hg (1010.0 mb)
Winds: from the WNW (290 degrees) at 8 MPH (7 knots; 3.6 m/s)
Visibility: 3 miles ( 5 km)
Ceiling: 2600 feet AGL
Clouds: scattered clouds at 400 feet AGL
broken clouds at 2600 feet AGL
Weather: -SHRA  (light rain showers)

METAR text: EDDH 171250Z 22011KT 5000 -SHRA BKN010CB SCT030 15/13 Q1010 BECMG BKN030
Conditions at: EDDH (HAMBURG/FUHLSBUT, DE) observed 1250 UTC 17 October 2019
Temperature: 15.0°C (59°F)
Dewpoint: 13.0°C (55°F) [RH = 88%]
Pressure (altimeter): 29.82 inches Hg (1010.0 mb)
Winds: from the SW (220 degrees) at 13 MPH (11 knots; 5.7 m/s)
Visibility: 3 miles ( 5 km)
Ceiling: 1000 feet AGL
Clouds: broken clouds at 1000 feet AGL
scattered clouds at 3000 feet AGL
Weather: -SHRA  (light rain showers)

METAR text: EDDH 171220Z 22009KT 9999 SCT011 BKN033 16/14 Q1009 TEMPO RADZ BKN008
Conditions at: EDDH (HAMBURG/FUHLSBUT, DE) observed 1220 UTC 17 October 2019
Temperature: 16.0°C (61°F)
Dewpoint: 14.0°C (57°F) [RH = 88%]
Pressure (altimeter): 29.79 inches Hg (1009.0 mb)
Winds: from the SW (220 degrees) at 10 MPH (9 knots; 4.6 m/s)
Visibility: 6 or more miles (10+ km)
Ceiling: 3300 feet AGL
Clouds: scattered clouds at 1100 feet AGL
broken clouds at 3300 feet AGL
Weather: no significant weather observed at this time

METAR text: EDDH 171150Z 22008KT 9999 BKN011 15/13 Q1009 TEMPO RADZ BKN008
Conditions at: EDDH (HAMBURG/FUHLSBUT, DE) observed 1150 UTC 17 October 2019
Temperature: 15.0°C (59°F)
Dewpoint: 13.0°C (55°F) [RH = 88%]
Pressure (altimeter): 29.79 inches Hg (1009.0 mb)
Winds: from the SW (220 degrees) at 9 MPH (8 knots; 4.1 m/s)
Visibility: 6 or more miles (10+ km)
Ceiling: 1100 feet AGL
Clouds: broken clouds at 1100 feet AGL
Weather: no significant weather observed at this time

METAR text: EDDH 171120Z 22011KT 9999 BKN011 15/13 Q1009 TEMPO BKN008
Conditions at: EDDH (HAMBURG/FUHLSBUT, DE) observed 1120 UTC 17 October 2019
Temperature: 15.0°C (59°F)
Dewpoint: 13.0°C (55°F) [RH = 88%]
Pressure (altimeter): 29.79 inches Hg (1009.0 mb)
Winds: from the SW (220 degrees) at 13 MPH (11 knots; 5.7 m/s)
Visibility: 6 or more miles (10+ km)
Ceiling: 1100 feet AGL
Clouds: broken clouds at 1100 feet AGL
Weather: no significant weather observed at this time

Forecast for: EDDH (HAMBURG/FUHLSBUT, DE)
Text: TAF EDDH 181700Z 1818/1924 22013KT 9999 FEW030
Forecast period: 1800 to 1900 UTC 18 October 2019
Forecast type: FROM: standard forecast or significant change
Winds: from the SW (220 degrees) at 15 MPH (13 knots; 6.7 m/s)
Visibility: 6 or more miles 10+ km)
Ceiling: at least 12,000 feet AGL
Clouds: few clouds at 3000 feet AGL
Weather: no significant weather forecast for this period
Text: BECMG 1819/1821 18007KT
Forecast period: 1900 UTC 18 October 2019 to 0000 UTC 20 October 2019
Forecast type: BECOMING: Conditions expected to become as follows by 2100 UTC 18 October 2019
Winds: from the S (180 degrees) at 8 MPH (7 knots; 3.6 m/s)
Visibility: 6 or more miles 10+ km)
Ceiling: at least 12,000 feet AGL
Clouds: few clouds at 3000 feet AGL
Weather: no significant weather forecast for this period
Text: PROB30
Forecast period: 1300 to 2100 UTC 19 October 2019
Forecast type: TEMPORARY: The following changes expected for less than half the time period
Visibility: missing
Ceiling: 1200 feet AGL
Clouds: broken clouds at 1200 feet AGL
Weather: SHRA  (rain showers)